Masardis, Maine
Current Conditions -  °F | °C
As of 1:35 AM on Wednesday 28 Jan 2015 (Local Time) from KPQI Reporting Station
Overcast Overcast  
Wind Chill: -6°   Ceiling: 2500
Heat Index: 10°   Visibility: 8mi
Dew Point:   Wind: 15mph
Humidity: 67%   Direction: 10°N
Pressure: 29.75"   Gusts: 20mph
Location:  46.5°N, 68.36°W
Report Text: KPQI 280635Z AUTO 01013G17KT 8SM OVC025 M12/M17 A2975 RMK AO1
Loading
Personal Weather Stations






























Interactive Weather Map New forecast layout! Learn more

10-Day Weather Forecast

Advertisements
Track Severe Weather on mobile